createdAt,value
2019-02-18T00:01:55.220Z,31.30
2019-02-18T00:04:22.866Z,28.63
2019-02-18T00:06:50.086Z,30.87
2019-02-18T00:09:17.269Z,27.63
2019-02-18T00:11:44.460Z,28.63
2019-02-18T00:14:11.665Z,28.20
2019-02-18T00:16:39.352Z,25.30
2019-02-18T00:19:06.531Z,27.97
2019-02-18T00:21:34.268Z,26.67
2019-02-18T00:24:01.450Z,28.00
2019-02-18T00:26:29.186Z,33.67
2019-02-18T00:28:56.368Z,26.30
2019-02-18T00:31:23.540Z,28.10
2019-02-18T00:33:50.736Z,25.97
2019-02-18T00:36:17.928Z,24.73
2019-02-18T00:38:45.649Z,26.97
2019-02-18T00:41:12.841Z,25.27
2019-02-18T00:43:40.736Z,26.50
2019-02-18T00:46:07.934Z,29.37
2019-02-18T00:48:35.117Z,26.53
2019-02-18T00:51:02.288Z,22.87
2019-02-18T00:53:29.470Z,26.67
2019-02-18T00:55:57.184Z,27.27
2019-02-18T00:58:24.357Z,26.27
2019-02-18T01:00:51.538Z,28.53
2019-02-18T01:03:18.730Z,31.07
2019-02-18T01:05:45.920Z,29.27
2019-02-18T01:08:13.092Z,34.97
2019-02-18T01:10:40.272Z,33.97
2019-02-18T01:13:07.441Z,28.53
2019-02-18T01:15:34.602Z,26.40
2019-02-18T01:18:01.797Z,27.03
2019-02-18T01:20:29.006Z,28.97
2019-02-18T01:22:56.174Z,34.33
2019-02-18T01:25:23.346Z,33.83
2019-02-18T01:27:50.527Z,31.73
2019-02-18T01:30:18.121Z,28.87
2019-02-18T01:32:45.309Z,29.87
2019-02-18T01:35:12.659Z,30.47
2019-02-18T01:37:45.777Z,31.10
2019-02-18T01:40:09.984Z,30.23
2019-02-18T01:42:37.155Z,29.20
2019-02-18T01:45:05.705Z,24.90
2019-02-18T01:47:32.878Z,27.63
2019-02-18T01:50:00.658Z,33.00
2019-02-18T01:52:27.825Z,29.30
2019-02-18T01:54:55.330Z,29.90
2019-02-18T01:57:23.024Z,30.00
2019-02-18T01:59:50.226Z,30.27
2019-02-18T02:02:17.466Z,28.77
2019-02-18T02:04:45.159Z,29.17
2019-02-18T02:07:12.355Z,30.70
2019-02-18T02:09:40.074Z,25.93
2019-02-18T02:12:07.249Z,30.17
2019-02-18T02:14:34.457Z,29.97
2019-02-18T02:17:01.635Z,30.20
2019-02-18T02:19:28.836Z,32.60
2019-02-18T02:21:56.542Z,27.37
2019-02-18T02:24:23.718Z,32.23
2019-02-18T02:26:50.901Z,25.90
2019-02-18T02:29:18.075Z,26.30
2019-02-18T02:31:46.001Z,28.93
2019-02-18T02:34:13.235Z,33.13
2019-02-18T02:36:40.429Z,33.13
2019-02-18T02:39:07.596Z,33.67
2019-02-18T02:41:34.775Z,27.10
2019-02-18T02:44:01.952Z,30.63
2019-02-18T02:46:29.164Z,28.53
2019-02-18T02:48:56.419Z,30.33
2019-02-18T02:51:23.591Z,32.90
2019-02-18T02:53:50.781Z,33.53
2019-02-18T02:56:18.469Z,29.27
2019-02-18T02:58:45.663Z,30.23
2019-02-18T03:01:12.933Z,29.10
2019-02-18T03:03:40.094Z,29.13
2019-02-18T03:06:07.294Z,33.47
2019-02-18T03:08:34.500Z,26.47
2019-02-18T03:11:01.687Z,28.43
2019-02-18T03:13:28.859Z,31.27
2019-02-18T03:15:56.535Z,30.40
2019-02-18T03:18:23.724Z,30.83
2019-02-18T03:20:51.004Z,28.63
2019-02-18T03:23:18.240Z,25.37
2019-02-18T03:25:45.903Z,31.37
2019-02-18T03:28:50.283Z,36.90
2019-02-18T03:31:19.112Z,31.33
2019-02-18T03:33:48.003Z,30.50
2019-02-18T03:36:15.201Z,38.33
2019-02-18T03:38:42.911Z,31.77
2019-02-18T03:41:10.081Z,30.73
2019-02-18T03:43:37.281Z,38.47
2019-02-18T03:46:04.454Z,27.77
2019-02-18T03:48:31.652Z,32.07
2019-02-18T03:50:59.594Z,29.83
2019-02-18T03:53:26.839Z,30.10
2019-02-18T03:55:54.042Z,32.70
2019-02-18T03:58:21.763Z,33.80
2019-02-18T04:00:49.023Z,37.73
2019-02-18T04:03:16.206Z,29.33
2019-02-18T04:05:43.551Z,33.27
2019-02-18T04:08:10.729Z,28.63
2019-02-18T04:10:37.912Z,31.23
2019-02-18T04:13:05.371Z,28.33
2019-02-18T04:15:32.817Z,28.47
2019-02-18T04:18:00.003Z,33.30
2019-02-18T04:20:27.202Z,30.30
2019-02-18T04:22:54.384Z,35.70
2019-02-18T04:25:21.565Z,28.43
2019-02-18T04:27:48.773Z,30.50
2019-02-18T04:30:15.955Z,32.00
2019-02-18T04:32:43.130Z,33.23
2019-02-18T04:35:10.315Z,34.20
2019-02-18T04:37:37.497Z,33.07
2019-02-18T04:40:06.461Z,33.33
2019-02-18T04:42:33.643Z,32.43
2019-02-18T04:45:00.837Z,37.17
2019-02-18T04:47:28.421Z,32.17
2019-02-18T04:49:55.597Z,27.13
2019-02-18T04:52:22.797Z,28.50
2019-02-18T04:54:49.980Z,33.03
2019-02-18T04:57:17.162Z,33.43
2019-02-18T04:59:44.360Z,31.67
2019-02-18T05:02:11.542Z,29.50
2019-02-18T05:04:38.711Z,28.83
2019-02-18T05:07:06.450Z,29.47
2019-02-18T05:09:33.641Z,30.93
2019-02-18T05:12:01.346Z,32.27
2019-02-18T05:14:28.575Z,33.53
2019-02-18T05:16:55.754Z,34.97
2019-02-18T05:19:23.118Z,28.37
2019-02-18T05:21:51.184Z,34.33
2019-02-18T05:24:18.366Z,32.83
2019-02-18T05:26:46.087Z,35.20
2019-02-18T05:29:13.287Z,31.23
2019-02-18T05:31:40.474Z,33.23
2019-02-18T05:34:07.659Z,35.77
2019-02-18T05:36:34.827Z,32.73
2019-02-18T05:39:03.039Z,31.70
2019-02-18T05:41:31.339Z,35.00
2019-02-18T05:43:59.266Z,33.40
2019-02-18T05:46:26.455Z,32.33
2019-02-18T05:48:53.639Z,34.10
2019-02-18T05:51:20.831Z,37.63
2019-02-18T05:53:48.027Z,35.63
2019-02-18T05:56:15.750Z,29.80
2019-02-18T05:58:42.930Z,38.50
2019-02-18T06:01:10.119Z,37.07
2019-02-18T06:03:37.294Z,32.10
2019-02-18T06:06:04.571Z,35.07
2019-02-18T06:08:32.141Z,37.37
2019-02-18T06:10:59.422Z,33.30
2019-02-18T06:13:26.593Z,41.03
2019-02-18T06:15:53.826Z,39.63
2019-02-18T06:18:20.990Z,33.63
2019-02-18T06:20:48.170Z,36.00
2019-02-18T06:23:15.341Z,32.70
2019-02-18T06:25:42.538Z,31.23
2019-02-18T06:28:10.050Z,35.90
2019-02-18T06:30:37.227Z,35.87
2019-02-18T06:33:05.771Z,39.10
2019-02-18T06:35:32.943Z,34.60
2019-02-18T06:38:00.135Z,31.83
2019-02-18T06:40:27.309Z,31.97
2019-02-18T06:42:54.477Z,29.73
2019-02-18T06:45:41.207Z,32.27
2019-02-18T06:48:12.812Z,31.97
2019-02-18T06:50:39.998Z,35.07
2019-02-18T06:53:07.602Z,32.07
2019-02-18T06:55:34.773Z,35.83
2019-02-18T06:58:15.739Z,35.13
2019-02-18T07:00:45.954Z,34.80
2019-02-18T07:03:29.757Z,35.33
2019-02-18T07:05:58.570Z,35.53
2019-02-18T07:08:30.118Z,30.50
2019-02-18T07:10:58.946Z,36.60
2019-02-18T07:13:26.114Z,34.33
2019-02-18T07:15:53.309Z,32.07
2019-02-18T07:18:20.487Z,30.30
2019-02-18T07:20:47.659Z,31.57
2019-02-18T07:23:14.853Z,36.03
2019-02-18T07:25:42.059Z,31.33
2019-02-18T07:28:09.803Z,32.30
2019-02-18T07:30:36.970Z,37.40
2019-02-18T07:33:04.460Z,35.83
2019-02-18T07:35:31.624Z,41.23
2019-02-18T07:37:58.810Z,49.43
2019-02-18T07:40:26.676Z,33.93
2019-02-18T07:42:54.346Z,35.20
2019-02-18T07:45:21.551Z,37.43
2019-02-18T07:47:49.263Z,38.73
2019-02-18T07:50:20.626Z,38.70
2019-02-18T07:52:45.830Z,32.10
2019-02-18T07:55:13.003Z,31.30
2019-02-18T07:57:40.209Z,34.57
2019-02-18T08:00:09.014Z,34.30
2019-02-18T08:02:36.191Z,34.20
2019-02-18T08:05:03.562Z,27.57
2019-02-18T08:07:30.972Z,26.67
2019-02-18T08:09:58.157Z,34.00
2019-02-18T08:12:25.336Z,36.53
2019-02-18T08:14:52.509Z,29.87
2019-02-18T08:17:19.746Z,30.93
2019-02-18T08:19:46.947Z,30.23
2019-02-18T08:22:14.206Z,33.10
2019-02-18T08:24:41.929Z,31.37
2019-02-18T08:27:09.111Z,29.67
2019-02-18T08:29:36.326Z,35.57
2019-02-18T08:32:03.573Z,29.80
2019-02-18T08:34:30.764Z,26.23
2019-02-18T08:36:58.609Z,29.30
2019-02-18T08:39:25.791Z,29.83
2019-02-18T08:41:52.954Z,26.60
2019-02-18T08:44:20.138Z,31.77
2019-02-18T08:46:47.336Z,29.67
2019-02-18T08:49:14.512Z,29.07
2019-02-18T08:51:45.414Z,27.93
2019-02-18T08:54:12.734Z,26.20
2019-02-18T08:56:39.936Z,27.97
2019-02-18T08:59:07.130Z,25.13
2019-02-18T09:01:34.306Z,25.73
2019-02-18T09:04:01.491Z,31.47
2019-02-18T09:06:28.671Z,28.93
2019-02-18T09:08:55.864Z,32.83
2019-02-18T09:11:23.044Z,35.60
2019-02-18T09:13:50.242Z,32.90
2019-02-18T09:16:17.410Z,27.23
2019-02-18T09:18:44.598Z,29.97
2019-02-18T09:21:11.778Z,27.13
2019-02-18T09:23:40.583Z,26.37
2019-02-18T09:26:07.761Z,26.80
2019-02-18T09:28:34.945Z,26.80
2019-02-18T09:31:02.587Z,29.93
2019-02-18T09:33:29.771Z,29.80
2019-02-18T09:35:56.935Z,29.77
2019-02-18T09:38:25.531Z,32.40
2019-02-18T09:40:52.898Z,24.53
2019-02-18T09:43:20.737Z,29.37
2019-02-18T09:45:47.922Z,27.03
2019-02-18T09:48:15.646Z,28.70
2019-02-18T09:50:42.861Z,28.67
2019-02-18T09:53:10.044Z,23.00
2019-02-18T09:55:37.209Z,29.30
2019-02-18T09:58:04.409Z,28.57
2019-02-18T10:00:31.912Z,33.43
2019-02-18T10:02:59.111Z,28.93
2019-02-18T10:05:27.407Z,24.47
2019-02-18T10:07:55.290Z,30.07
2019-02-18T10:10:22.474Z,27.40
2019-02-18T10:12:50.219Z,26.27
2019-02-18T10:15:17.421Z,24.27
2019-02-18T10:17:44.609Z,41.23
2019-02-18T10:20:12.255Z,24.50
2019-02-18T10:22:39.433Z,32.77
2019-02-18T10:25:08.248Z,28.93
2019-02-18T10:27:35.437Z,23.47
2019-02-18T10:30:03.051Z,27.20
2019-02-18T10:32:30.230Z,28.53
2019-02-18T10:34:57.434Z,23.80
2019-02-18T10:37:24.608Z,24.57
2019-02-18T10:39:51.804Z,26.20
2019-02-18T10:42:19.016Z,24.83
2019-02-18T10:44:46.196Z,29.47
2019-02-18T10:47:13.750Z,25.73
2019-02-18T10:49:40.942Z,28.97
2019-02-18T10:52:08.122Z,29.33
2019-02-18T10:54:35.304Z,25.63
2019-02-18T10:57:02.561Z,24.05
2019-02-18T10:59:29.814Z,24.40
2019-02-18T11:01:57.707Z,28.73
2019-02-18T11:04:24.970Z,30.48
2019-02-18T11:06:52.170Z,21.52
2019-02-18T11:09:19.391Z,26.07
2019-02-18T11:11:46.652Z,22.67
2019-02-18T11:14:13.953Z,23.83
2019-02-18T11:16:41.150Z,24.57
2019-02-18T11:19:08.334Z,21.48
2019-02-18T11:21:35.503Z,24.55
2019-02-18T11:24:02.759Z,23.52
2019-02-18T11:26:30.426Z,30.57
2019-02-18T11:28:57.642Z,25.60
2019-02-18T11:31:25.495Z,23.87
2019-02-18T11:33:52.667Z,21.85
2019-02-18T11:36:20.275Z,20.72
2019-02-18T11:38:47.519Z,19.48
2019-02-18T11:41:14.790Z,25.90
2019-02-18T11:43:42.070Z,27.60
2019-02-18T11:46:09.304Z,25.77
2019-02-18T11:48:36.855Z,25.65
2019-02-18T11:51:04.026Z,23.62
2019-02-18T11:53:31.327Z,22.48
2019-02-18T11:55:58.571Z,24.00
2019-02-18T11:58:25.835Z,23.35
2019-02-18T12:00:53.004Z,34.38
2019-02-18T12:03:20.664Z,24.80
2019-02-18T12:05:47.940Z,21.50
2019-02-18T12:08:15.145Z,21.62
2019-02-18T12:10:42.445Z,24.50
2019-02-18T12:13:10.221Z,26.68
2019-02-18T12:15:37.397Z,24.25
2019-02-18T12:18:04.667Z,22.93
2019-02-18T12:20:31.925Z,21.87
2019-02-18T12:22:59.206Z,30.32
2019-02-18T12:25:26.402Z,26.85
2019-02-18T12:27:53.667Z,21.25
2019-02-18T12:30:20.948Z,21.80
2019-02-18T12:32:48.186Z,23.62
2019-02-18T12:35:15.384Z,23.00
2019-02-18T12:37:42.546Z,24.27
2019-02-18T12:40:15.750Z,23.85
2019-02-18T12:42:42.946Z,26.48
2019-02-18T12:45:10.825Z,21.23
2019-02-18T12:47:38.071Z,25.30
2019-02-18T12:50:06.033Z,27.52
2019-02-18T12:52:33.376Z,21.93
2019-02-18T12:55:00.853Z,21.60
2019-02-18T12:57:28.906Z,23.60
2019-02-18T12:59:56.496Z,25.97
2019-02-18T13:02:23.830Z,25.97
2019-02-18T13:04:51.094Z,25.92
2019-02-18T13:07:18.365Z,26.33
2019-02-18T13:09:46.889Z,23.50
2019-02-18T13:12:14.161Z,20.68
2019-02-18T13:14:41.409Z,22.27
2019-02-18T13:17:08.609Z,21.52
2019-02-18T13:19:35.870Z,20.48
2019-02-18T13:22:03.114Z,21.80
2019-02-18T13:24:40.787Z,23.18
2019-02-18T13:27:08.069Z,21.30
2019-02-18T13:29:35.305Z,23.67
2019-02-18T13:32:02.576Z,21.02
2019-02-18T13:34:29.822Z,23.18
2019-02-18T13:36:58.097Z,20.05
2019-02-18T13:39:25.415Z,27.10
2019-02-18T13:41:52.638Z,22.37
2019-02-18T13:44:19.899Z,21.27
2019-02-18T13:46:47.068Z,18.67
2019-02-18T13:49:14.268Z,21.35
2019-02-18T13:51:41.470Z,18.50
2019-02-18T13:54:08.749Z,22.73
2019-02-18T13:56:35.994Z,18.77
2019-02-18T13:59:03.599Z,23.18
2019-02-18T14:01:30.878Z,21.15
2019-02-18T14:03:58.130Z,19.57
2019-02-18T14:06:25.407Z,18.37
2019-02-18T14:08:52.656Z,26.95
2019-02-18T14:11:19.837Z,21.87
2019-02-18T14:13:47.194Z,19.62
2019-02-18T14:16:14.385Z,26.12
2019-02-18T14:18:41.644Z,22.37
2019-02-18T14:21:08.885Z,19.65
2019-02-18T14:23:36.058Z,20.32
2019-02-18T14:26:03.523Z,21.97
2019-02-18T14:28:30.766Z,25.50
2019-02-18T14:30:58.837Z,23.73
2019-02-18T14:33:26.086Z,20.50
2019-02-18T14:35:53.276Z,19.52
2019-02-18T14:38:20.478Z,23.18
2019-02-18T14:40:47.665Z,25.12
2019-02-18T14:43:14.949Z,22.65
2019-02-18T14:45:42.202Z,21.95
2019-02-18T14:48:10.149Z,21.20
2019-02-18T14:50:37.341Z,18.25
2019-02-18T14:53:04.531Z,25.52
2019-02-18T14:55:32.083Z,23.15
2019-02-18T14:57:59.342Z,19.87
2019-02-18T15:00:26.530Z,19.95
2019-02-18T15:02:55.267Z,24.47
2019-02-18T15:05:22.837Z,21.02
2019-02-18T15:07:50.530Z,20.65
2019-02-18T15:10:17.784Z,19.00
2019-02-18T15:12:45.052Z,24.75
2019-02-18T15:15:12.322Z,23.30
2019-02-18T15:17:39.594Z,26.82
2019-02-18T15:20:08.262Z,26.70
2019-02-18T15:22:36.223Z,25.67
2019-02-18T15:25:04.794Z,24.47
2019-02-18T15:27:31.995Z,21.17
2019-02-18T15:29:59.748Z,22.20
2019-02-18T15:32:26.948Z,20.93
2019-02-18T15:34:54.190Z,20.13
2019-02-18T15:37:21.527Z,25.03
2019-02-18T15:39:49.056Z,22.30
2019-02-18T15:42:16.303Z,23.97
2019-02-18T15:44:44.022Z,21.33
2019-02-18T15:47:11.219Z,26.83
2019-02-18T15:49:38.944Z,24.97
2019-02-18T15:52:06.193Z,21.87
2019-02-18T15:54:33.887Z,23.27
2019-02-18T15:57:01.439Z,21.13
2019-02-18T15:59:28.694Z,24.57
2019-02-18T16:01:55.935Z,23.70
2019-02-18T16:04:23.110Z,22.40
2019-02-18T16:06:50.339Z,21.47
2019-02-18T16:09:17.559Z,28.20
2019-02-18T16:11:44.742Z,28.03
2019-02-18T16:14:12.019Z,28.27
2019-02-18T16:16:39.220Z,22.70
2019-02-18T16:19:06.479Z,37.83
2019-02-18T16:21:34.254Z,23.47
2019-02-18T16:24:01.527Z,27.30
2019-02-18T16:26:30.700Z,26.63
2019-02-18T16:29:05.808Z,27.47
2019-02-18T16:31:33.955Z,23.27
2019-02-18T16:34:01.524Z,24.10
2019-02-18T16:36:28.775Z,36.20
2019-02-18T16:38:56.474Z,24.37
2019-02-18T16:41:23.695Z,23.43
2019-02-18T16:43:51.403Z,26.30
2019-02-18T16:46:19.630Z,29.97
2019-02-18T16:48:47.875Z,29.20
2019-02-18T16:51:15.066Z,26.27
2019-02-18T16:53:42.809Z,23.23
2019-02-18T16:56:10.090Z,25.07
2019-02-18T16:58:37.375Z,25.37
2019-02-18T17:01:05.483Z,28.97
2019-02-18T17:03:33.431Z,27.70
2019-02-18T17:06:00.630Z,24.63
2019-02-18T17:08:32.814Z,23.50
2019-02-18T17:10:57.439Z,27.37
2019-02-18T17:13:24.759Z,22.07
2019-02-18T17:15:51.980Z,21.63
2019-02-18T17:18:19.236Z,24.30
2019-02-18T17:20:46.711Z,31.47
2019-02-18T17:23:13.957Z,25.80
2019-02-18T17:25:41.280Z,27.73
2019-02-18T17:28:08.515Z,29.13
2019-02-18T17:30:35.762Z,28.13
2019-02-18T17:33:02.944Z,31.57
2019-02-18T17:35:30.221Z,27.00
2019-02-18T17:37:57.483Z,28.20
2019-02-18T17:40:25.231Z,32.80
2019-02-18T17:42:52.485Z,23.63
2019-02-18T17:45:19.661Z,28.23
2019-02-18T17:47:46.917Z,26.27
2019-02-18T17:50:14.574Z,27.00
2019-02-18T17:52:41.826Z,26.37
2019-02-18T17:55:10.887Z,28.07
2019-02-18T17:57:39.041Z,27.00
2019-02-18T18:00:07.857Z,25.27
2019-02-18T18:02:35.051Z,27.30
2019-02-18T18:05:02.221Z,28.60
2019-02-18T18:07:29.394Z,26.30
2019-02-18T18:09:56.705Z,30.00
2019-02-18T18:12:23.970Z,27.77
2019-02-18T18:14:51.528Z,28.97
2019-02-18T18:17:18.778Z,33.67
2019-02-18T18:19:46.041Z,31.10
2019-02-18T18:22:13.240Z,25.40
2019-02-18T18:24:40.525Z,26.17
2019-02-18T18:27:07.704Z,24.97
2019-02-18T18:29:34.959Z,30.67
2019-02-18T18:32:02.226Z,31.23
2019-02-18T18:34:29.958Z,27.13
2019-02-18T18:36:57.154Z,29.63
2019-02-18T18:39:24.323Z,30.53
2019-02-18T18:41:51.492Z,27.47
2019-02-18T18:44:18.693Z,30.63
2019-02-18T18:46:46.650Z,30.80
2019-02-18T18:49:14.952Z,29.57
2019-02-18T18:51:43.455Z,28.50
2019-02-18T18:54:11.722Z,28.60
2019-02-18T18:56:38.960Z,31.27
2019-02-18T18:59:06.179Z,24.93
2019-02-18T19:01:33.380Z,31.90
2019-02-18T19:04:00.650Z,31.57
2019-02-18T19:06:28.201Z,30.10
2019-02-18T19:08:57.789Z,29.33
2019-02-18T19:11:25.610Z,31.90
2019-02-18T19:13:52.807Z,34.03
2019-02-18T19:16:20.058Z,35.77
2019-02-18T19:18:47.243Z,30.60
2019-02-18T19:21:14.425Z,28.87
2019-02-18T19:23:41.711Z,30.43
2019-02-18T19:26:08.987Z,32.93
2019-02-18T19:28:36.160Z,38.33
2019-02-18T19:31:03.350Z,33.97
2019-02-18T19:33:30.614Z,36.30
2019-02-18T19:35:57.818Z,35.73
2019-02-18T19:38:25.063Z,33.43
2019-02-18T19:40:52.239Z,37.27
2019-02-18T19:43:19.803Z,36.50
2019-02-18T19:45:46.974Z,39.67
2019-02-18T19:48:17.943Z,41.10
2019-02-18T19:50:45.795Z,34.63
2019-02-18T19:53:12.994Z,35.70
2019-02-18T19:55:40.811Z,37.57
2019-02-18T19:58:08.010Z,45.73
2019-02-18T20:00:35.215Z,36.53
2019-02-18T20:03:02.482Z,31.07
2019-02-18T20:05:29.757Z,37.93
2019-02-18T20:07:56.942Z,38.97
2019-02-18T20:10:24.118Z,34.50
2019-02-18T20:12:51.911Z,38.87
2019-02-18T20:15:19.199Z,37.53
2019-02-18T20:17:48.830Z,32.57
2019-02-18T20:20:18.130Z,34.17
2019-02-18T20:22:47.020Z,31.70
2019-02-18T20:25:16.418Z,38.13
2019-02-18T20:27:44.052Z,34.67
2019-02-18T20:30:17.304Z,33.63
2019-02-18T20:32:46.262Z,34.30
2019-02-18T20:35:13.556Z,39.23
2019-02-18T20:37:40.870Z,29.70
2019-02-18T20:40:09.598Z,34.17
2019-02-18T20:42:37.778Z,34.20
2019-02-18T20:45:06.815Z,39.17
2019-02-18T20:47:34.245Z,36.30
2019-02-18T20:50:01.612Z,33.60
2019-02-18T20:52:28.905Z,31.13
2019-02-18T20:54:56.181Z,33.87
2019-02-18T20:57:24.182Z,35.93
2019-02-18T20:59:52.378Z,35.00
2019-02-18T21:02:19.679Z,33.63
2019-02-18T21:04:46.978Z,37.70
2019-02-18T21:07:14.284Z,33.33
2019-02-18T21:09:41.574Z,33.97
2019-02-18T21:12:08.882Z,40.33
2019-02-18T21:14:36.214Z,36.20
2019-02-18T21:17:03.790Z,31.70
2019-02-18T21:19:31.111Z,29.97
2019-02-18T21:21:58.415Z,29.70
2019-02-18T21:24:25.712Z,33.73
2019-02-18T21:26:54.109Z,32.60
2019-02-18T21:29:21.391Z,29.87
2019-02-18T21:31:49.206Z,35.37
2019-02-18T21:34:16.813Z,38.20
2019-02-18T21:36:44.107Z,35.83
2019-02-18T21:39:13.059Z,35.03
2019-02-18T21:41:40.849Z,34.40
2019-02-18T21:44:08.145Z,37.40
2019-02-18T21:46:35.602Z,33.47
2019-02-18T21:49:02.885Z,33.43
2019-02-18T21:51:30.666Z,33.57
2019-02-18T21:53:57.984Z,35.87
2019-02-18T21:56:25.317Z,31.10
2019-02-18T21:58:52.615Z,31.07
2019-02-18T22:01:19.910Z,32.90
2019-02-18T22:03:47.209Z,32.43
2019-02-18T22:06:14.517Z,31.70
2019-02-18T22:08:42.004Z,32.40
2019-02-18T22:11:09.357Z,40.77
2019-02-18T22:13:36.666Z,35.60
2019-02-18T22:16:03.955Z,39.63
2019-02-18T22:18:31.274Z,30.57
2019-02-18T22:20:58.560Z,35.67
2019-02-18T22:23:25.870Z,37.47
2019-02-18T22:25:53.181Z,37.13
2019-02-18T22:28:20.921Z,34.50
2019-02-18T22:30:48.314Z,34.03
2019-02-18T22:33:15.605Z,33.87
2019-02-18T22:35:44.557Z,38.37
2019-02-18T22:38:11.864Z,35.60
2019-02-18T22:40:39.655Z,38.30
2019-02-18T22:43:06.937Z,34.67
2019-02-18T22:45:34.253Z,32.43
2019-02-18T22:48:03.649Z,39.03
2019-02-18T22:50:30.939Z,35.20
2019-02-18T22:52:59.000Z,35.63
2019-02-18T22:55:26.328Z,35.60
2019-02-18T22:57:53.614Z,33.63
2019-02-18T23:00:27.054Z,39.23
2019-02-18T23:02:57.855Z,39.23
2019-02-18T23:05:25.169Z,37.17
2019-02-18T23:07:52.458Z,32.30
2019-02-18T23:10:19.780Z,37.50
2019-02-18T23:12:47.112Z,33.13
2019-02-18T23:15:14.411Z,37.07
2019-02-18T23:17:41.776Z,30.93
2019-02-18T23:20:09.007Z,29.03
2019-02-18T23:22:36.334Z,29.67
2019-02-18T23:25:03.614Z,36.80
2019-02-18T23:27:30.904Z,32.67
2019-02-18T23:30:00.463Z,32.93
2019-02-18T23:32:27.818Z,27.37
2019-02-18T23:34:55.118Z,37.10
2019-02-18T23:37:22.485Z,29.07
2019-02-18T23:39:49.802Z,34.00
2019-02-18T23:42:17.501Z,31.97
2019-02-18T23:44:44.789Z,31.43
2019-02-18T23:47:12.079Z,33.30
2019-02-18T23:49:39.858Z,29.90
2019-02-18T23:52:07.157Z,30.73
2019-02-18T23:54:34.446Z,31.53
2019-02-18T23:57:01.749Z,30.50
2019-02-18T23:59:29.051Z,32.17
